Time;durP1;ratioP1;P1;durP2;ratioP2;P2;SDS_P1;SDS_P2;PMS_P1;PMS_P2;Temp;Humidity;BMP_temperature;BMP_pressure;BME280_temperature;BME280_humidity;BME280_pressure;Samples;Min_cycle;Max_cycle;Signal;HPM_P1;HPM_P2
2023/12/17 00:00:19;;;;;;;;;;;;;;;3.52;70.51;100276.16;5012590;28;19929;-62
2023/12/17 00:03:07;;;;;;;;;;;;;;;3.57;70.28;100278.19;5008220;28;20008;-62
2023/12/17 00:06:06;;;;;;;;;;;;;;;3.48;70.75;100271.41;5011365;28;20265;-61
2023/12/17 00:08:55;;;;;;;;;;;;;;;3.63;69.80;100275.53;5004561;28;19929;-63
2023/12/17 00:11:43;;;;;;;;;;;;;;;3.64;69.78;100269.13;5008203;28;19925;-65
2023/12/17 00:14:31;;;;;;;;;;;;;;;3.62;69.84;100268.50;5011406;28;19977;-61
2023/12/17 00:17:20;;;;;;;;;;;;;;;3.67;70.04;100271.41;5005317;28;19936;-62
2023/12/17 00:20:09;;;;;;;;;;;;;;;3.69;70.06;100271.19;5010334;28;20012;-62
2023/12/17 00:22:58;;;;;;;;;;;;;;;3.77;69.77;100264.75;5008876;28;19925;-62
2023/12/17 00:25:47;;;;;;;;;;;;;;;3.78;69.76;100261.03;5012232;28;19965;-61
2023/12/17 00:28:35;;;;;;;;;;;;;;;3.82;69.34;100256.88;5006701;28;20087;-64
2023/12/17 00:31:23;;;;;;;;;;;;;;;3.48;70.92;100264.16;5003382;28;19933;-63
2023/12/17 00:34:11;;;;;;;;;;;;;;;3.69;70.88;100271.19;5010792;28;19933;-62
2023/12/17 00:36:59;;;;;;;;;;;;;;;2.78;72.51;100274.44;5007598;28;19925;-62
2023/12/17 00:39:49;;;;;;;;;;;;;;;2.38;74.81;100283.34;5008428;28;20020;-62
2023/12/17 00:42:37;;;;;;;;;;;;;;;2.22;75.21;100292.56;5009026;28;19987;-64
2023/12/17 00:45:25;;;;;;;;;;;;;;;2.53;74.71;100287.56;5012403;28;19929;-62
2023/12/17 00:48:13;;;;;;;;;;;;;;;2.89;73.53;100287.25;5005687;28;19925;-62
2023/12/17 00:51:01;;;;;;;;;;;;;;;3.09;72.63;100278.38;5005456;28;19929;-63
2023/12/17 00:53:49;;;;;;;;;;;;;;;3.15;71.65;100272.22;5008297;28;19933;-62
2023/12/17 00:56:38;;;;;;;;;;;;;;;3.33;71.42;100274.28;5011401;28;19932;-63
2023/12/17 00:59:26;;;;;;;;;;;;;;;3.28;71.64;100263.34;5008106;28;19925;-62
2023/12/17 01:02:14;;;;;;;;;;;;;;;3.29;71.48;100254.25;5005055;28;19977;-62
2023/12/17 01:05:02;;;;;;;;;;;;;;;3.37;71.07;100254.88;5003926;28;19941;-62
2023/12/17 01:07:54;;;;;;;;;;;;;;;3.41;70.91;100258.81;5011056;28;20498;-62
2023/12/17 01:10:43;;;;;;;;;;;;;;;3.38;71.14;100258.38;5006627;28;19933;-62
2023/12/17 01:13:32;;;;;;;;;;;;;;;3.29;71.27;100260.44;5010378;28;19929;-61
2023/12/17 01:16:22;;;;;;;;;;;;;;;3.48;70.77;100266.84;5008817;28;19940;-62
2023/12/17 01:19:10;;;;;;;;;;;;;;;3.51;70.18;100271.78;5006905;28;20387;-62
2023/12/17 01:21:59;;;;;;;;;;;;;;;3.52;70.55;100273.47;5007821;28;19929;-62
2023/12/17 01:24:49;;;;;;;;;;;;;;;3.33;70.78;100271.59;5003184;28;19930;-61
2023/12/17 01:27:37;;;;;;;;;;;;;;;3.39;71.03;100270.78;5006239;28;20040;-64
2023/12/17 01:30:27;;;;;;;;;;;;;;;3.40;70.93;100277.78;5006305;28;19944;-61
2023/12/17 01:33:15;;;;;;;;;;;;;;;3.51;70.79;100269.09;5003907;28;19931;-61
2023/12/17 01:36:03;;;;;;;;;;;;;;;3.53;70.39;100269.75;5008324;28;19926;-63
2023/12/17 01:38:51;;;;;;;;;;;;;;;3.56;70.25;100272.00;5006494;28;19929;-63
2023/12/17 01:41:39;;;;;;;;;;;;;;;3.39;70.74;100260.03;5006217;28;19929;-63
2023/12/17 01:44:27;;;;;;;;;;;;;;;3.40;70.87;100257.13;5004142;28;19940;-63
2023/12/17 01:47:17;;;;;;;;;;;;;;;3.30;71.00;100272.00;5010068;28;19929;-63
2023/12/17 01:50:06;;;;;;;;;;;;;;;3.08;71.88;100274.06;5002233;28;21705;-63
2023/12/17 01:52:54;;;;;;;;;;;;;;;2.57;74.08;100279.94;4999977;28;19985;-62
2023/12/17 01:55:42;;;;;;;;;;;;;;;2.40;74.56;100292.88;5006515;28;20028;-62
2023/12/17 01:58:30;;;;;;;;;;;;;;;2.54;74.03;100294.56;5008488;28;19925;-61
2023/12/17 02:01:18;;;;;;;;;;;;;;;2.78;73.97;100289.72;5002357;28;20338;-63
2023/12/17 02:04:08;;;;;;;;;;;;;;;2.96;72.80;100298.00;5007029;28;20068;-62
2023/12/17 02:06:56;;;;;;;;;;;;;;;3.08;72.58;100291.00;5006331;28;20040;-62
2023/12/17 02:09:46;;;;;;;;;;;;;;;3.08;72.16;100288.31;5003266;28;21673;-62
2023/12/17 02:12:35;;;;;;;;;;;;;;;3.09;71.84;100289.97;5008408;28;19925;-62
2023/12/17 02:15:23;;;;;;;;;;;;;;;3.10;71.73;100291.63;5009112;28;19933;-62
2023/12/17 02:18:11;;;;;;;;;;;;;;;3.18;71.66;100279.84;5000739;28;20019;-62
2023/12/17 02:21:00;;;;;;;;;;;;;;;3.11;71.44;100279.03;5007897;28;19933;-62
2023/12/17 02:23:50;;;;;;;;;;;;;;;3.13;71.36;100271.59;5005805;28;19933;-62
2023/12/17 02:26:40;;;;;;;;;;;;;;;3.10;71.42;100267.47;5003363;28;20473;-61
2023/12/17 02:29:29;;;;;;;;;;;;;;;3.00;71.66;100267.03;5004150;28;19926;-62
2023/12/17 02:32:17;;;;;;;;;;;;;;;3.05;71.80;100261.88;5007950;28;19932;-64
2023/12/17 02:35:06;;;;;;;;;;;;;;;2.95;71.81;100253.38;5004104;28;20031;-63
2023/12/17 02:37:54;;;;;;;;;;;;;;;2.95;71.94;100256.06;5008209;28;19925;-62
2023/12/17 02:40:44;;;;;;;;;;;;;;;2.94;71.57;100251.75;5004349;28;20008;-63
2023/12/17 02:43:32;;;;;;;;;;;;;;;2.97;71.91;100259.38;5014214;28;19952;-63
2023/12/17 02:46:20;;;;;;;;;;;;;;;2.87;72.21;100262.44;5016942;28;19933;-63
2023/12/17 02:49:11;;;;;;;;;;;;;;;1.93;74.90;100267.66;5007773;28;19934;-62
2023/12/17 02:51:59;;;;;;;;;;;;;;;2.00;75.44;100255.13;5006565;28;20035;-63
2023/12/17 02:54:48;;;;;;;;;;;;;;;2.34;74.00;100246.22;5009954;28;19930;-62
2023/12/17 02:57:38;;;;;;;;;;;;;;;2.48;73.34;100239.03;5005279;28;19944;-62
2023/12/17 03:00:26;;;;;;;;;;;;;;;2.60;72.66;100240.09;5004207;28;20319;-62
2023/12/17 03:03:14;;;;;;;;;;;;;;;2.62;71.99;100229.16;5009157;28;20407;-63
2023/12/17 03:06:03;;;;;;;;;;;;;;;2.58;72.43;100235.97;5009355;28;19964;-61
2023/12/17 03:08:51;;;;;;;;;;;;;;;2.59;72.11;100225.00;5002463;28;19929;-62
2023/12/17 03:11:39;;;;;;;;;;;;;;;2.69;71.88;100229.19;5000887;28;19925;-62
2023/12/17 03:14:29;;;;;;;;;;;;;;;2.69;71.56;100231.88;5007391;28;19926;-62
2023/12/17 03:17:17;;;;;;;;;;;;;;;2.19;73.46;100231.28;5009675;28;20315;-61
2023/12/17 03:20:06;;;;;;;;;;;;;;;2.34;73.29;100227.44;5009414;28;20409;-62
2023/12/17 03:22:54;;;;;;;;;;;;;;;2.30;73.95;100218.13;5009972;28;20019;-61
2023/12/17 03:25:42;;;;;;;;;;;;;;;2.41;73.53;100213.22;5006718;28;20375;-62
2023/12/17 03:28:30;;;;;;;;;;;;;;;2.55;72.18;100213.03;5013464;28;19926;-62
2023/12/17 03:31:19;;;;;;;;;;;;;;;2.70;71.85;100190.56;5008903;28;19926;-62
2023/12/17 03:34:07;;;;;;;;;;;;;;;2.69;72.02;100195.09;5010682;28;20386;-62
2023/12/17 03:36:55;;;;;;;;;;;;;;;2.73;71.72;100203.59;5011974;28;19926;-61
2023/12/17 03:39:43;;;;;;;;;;;;;;;2.75;71.39;100198.84;5003684;28;19926;-62
2023/12/17 03:42:31;;;;;;;;;;;;;;;2.80;71.02;100201.72;5011964;28;19929;-62
2023/12/17 03:45:19;;;;;;;;;;;;;;;2.78;70.90;100198.44;5011288;28;19968;-62
2023/12/17 03:48:09;;;;;;;;;;;;;;;2.87;71.20;100206.06;5007711;28;20024;-63
2023/12/17 03:50:57;;;;;;;;;;;;;;;2.91;70.43;100193.06;5006915;28;19968;-62
2023/12/17 03:53:46;;;;;;;;;;;;;;;2.86;71.11;100196.38;5010811;28;19925;-62
2023/12/17 03:56:34;;;;;;;;;;;;;;;2.84;70.94;100197.63;5012618;28;20295;-63
2023/12/17 03:59:22;;;;;;;;;;;;;;;2.81;70.89;100200.69;5007321;28;19930;-62
2023/12/17 04:02:10;;;;;;;;;;;;;;;2.88;71.05;100204.25;5010273;28;19933;-62
2023/12/17 04:04:59;;;;;;;;;;;;;;;2.85;71.17;100220.75;5007391;28;20359;-63
2023/12/17 04:07:47;;;;;;;;;;;;;;;2.32;72.22;100217.91;5015204;28;20068;-63
2023/12/17 04:10:35;;;;;;;;;;;;;;;2.43;72.60;100220.03;5013029;28;19933;-63
2023/12/17 04:13:23;;;;;;;;;;;;;;;2.58;71.92;100226.06;5012962;28;19969;-62
2023/12/17 04:16:11;;;;;;;;;;;;;;;2.62;71.98;100230.00;5006747;28;20303;-62
2023/12/17 04:18:59;;;;;;;;;;;;;;;2.64;71.60;100224.41;5008601;28;19934;-62
2023/12/17 04:21:49;;;;;;;;;;;;;;;2.73;71.41;100233.13;5011477;28;19933;-62
2023/12/17 04:24:37;;;;;;;;;;;;;;;2.56;72.20;100232.66;5014029;28;19933;-62
2023/12/17 04:27:25;;;;;;;;;;;;;;;2.52;72.12;100226.88;5019960;28;20299;-62
2023/12/17 04:30:13;;;;;;;;;;;;;;;2.65;72.00;100223.38;5004618;28;20076;-62
2023/12/17 04:33:01;;;;;;;;;;;;;;;2.76;71.46;100220.09;5011728;28;19925;-62
2023/12/17 04:35:50;;;;;;;;;;;;;;;2.57;71.73;100219.03;5011499;28;20064;-62
2023/12/17 04:38:41;;;;;;;;;;;;;;;2.66;71.26;100210.78;5009365;28;19940;-62
2023/12/17 04:41:29;;;;;;;;;;;;;;;2.40;71.63;100212.41;5010933;28;20053;-62
2023/12/17 04:44:17;;;;;;;;;;;;;;;2.28;72.19;100214.81;5009514;28;19925;-64
2023/12/17 04:47:05;;;;;;;;;;;;;;;2.45;71.42;100204.56;5011717;28;19933;-63
2023/12/17 04:49:53;;;;;;;;;;;;;;;2.50;71.19;100196.72;5007299;28;19929;-62
2023/12/17 04:52:41;;;;;;;;;;;;;;;2.46;71.21;100208.91;5011035;28;19926;-62
2023/12/17 04:55:32;;;;;;;;;;;;;;;2.41;71.33;100200.63;5011497;28;19925;-62
2023/12/17 04:58:20;;;;;;;;;;;;;;;2.43;71.18;100201.25;5008590;28;20019;-62
2023/12/17 05:01:08;;;;;;;;;;;;;;;2.45;71.17;100207.25;5008687;28;19926;-62
2023/12/17 05:03:56;;;;;;;;;;;;;;;2.46;71.06;100210.75;5015474;28;19937;-62
2023/12/17 05:06:44;;;;;;;;;;;;;;;2.47;71.21;100213.22;5015984;28;19935;-62
2023/12/17 05:09:32;;;;;;;;;;;;;;;2.56;71.24;100222.75;5006517;28;20429;-61
2023/12/17 05:12:22;;;;;;;;;;;;;;;2.62;71.30;100215.75;5004700;28;19945;-62
2023/12/17 05:15:11;;;;;;;;;;;;;;;2.65;70.93;100207.28;5005693;28;20011;-62
2023/12/17 05:17:59;;;;;;;;;;;;;;;2.63;71.53;100212.03;5005088;28;19926;-62
2023/12/17 05:20:48;;;;;;;;;;;;;;;2.70;70.78;100212.03;5002376;28;19925;-62
2023/12/17 05:23:36;;;;;;;;;;;;;;;2.71;70.41;100211.00;5010988;28;20051;-62
2023/12/17 05:26:24;;;;;;;;;;;;;;;2.93;70.21;100199.06;5010835;28;19936;-62
2023/12/17 05:29:14;;;;;;;;;;;;;;;2.98;69.55;100198.44;5007783;28;20007;-62
2023/12/17 05:32:02;;;;;;;;;;;;;;;2.99;69.22;100195.56;5004794;28;19929;-63
2023/12/17 05:34:50;;;;;;;;;;;;;;;2.96;69.47;100200.50;5006920;28;19929;-63
2023/12/17 05:37:39;;;;;;;;;;;;;;;3.04;69.25;100203.00;5009099;28;19940;-62
2023/12/17 05:40:28;;;;;;;;;;;;;;;3.14;69.23;100200.72;5009576;28;20478;-64
2023/12/17 05:43:16;;;;;;;;;;;;;;;3.23;68.48;100202.16;5003420;28;19929;-63
2023/12/17 05:46:05;;;;;;;;;;;;;;;3.16;68.31;100201.34;5009014;28;20008;-63
2023/12/17 05:48:54;;;;;;;;;;;;;;;3.11;68.56;100193.91;5010106;28;19926;-62
2023/12/17 05:51:42;;;;;;;;;;;;;;;3.01;69.04;100204.22;5004436;28;19937;-62
2023/12/17 05:54:31;;;;;;;;;;;;;;;3.05;68.89;100192.06;5002606;28;19941;-63
2023/12/17 05:57:20;;;;;;;;;;;;;;;3.19;68.53;100189.34;4999330;28;20338;-63
2023/12/17 06:00:09;;;;;;;;;;;;;;;3.11;68.68;100191.22;5006433;28;20019;-62
2023/12/17 06:02:59;;;;;;;;;;;;;;;3.07;68.92;100187.28;4997509;28;20268;-63
2023/12/17 06:05:47;;;;;;;;;;;;;;;3.13;68.26;100191.81;5007557;28;20277;-63
2023/12/17 06:08:35;;;;;;;;;;;;;;;3.13;68.59;100191.81;5008107;28;20414;-62
2023/12/17 06:11:26;;;;;;;;;;;;;;;3.06;68.84;100193.69;5003260;28;19929;-63
2023/12/17 06:14:14;;;;;;;;;;;;;;;2.89;69.40;100187.09;5003924;28;19934;-62
2023/12/17 06:17:02;;;;;;;;;;;;;;;2.87;69.58;100183.75;5001221;28;20371;-62
2023/12/17 06:19:52;;;;;;;;;;;;;;;2.99;69.17;100184.81;5011967;28;20380;-62
2023/12/17 06:22:41;;;;;;;;;;;;;;;2.91;69.07;100185.00;5013810;28;20383;-63
2023/12/17 06:25:29;;;;;;;;;;;;;;;2.91;69.73;100179.66;5009627;28;19981;-63
2023/12/17 06:28:18;;;;;;;;;;;;;;;3.04;69.16;100178.84;5010482;28;19933;-63
2023/12/17 06:31:06;;;;;;;;;;;;;;;3.09;68.80;100179.88;5008597;28;19992;-63
2023/12/17 06:33:54;;;;;;;;;;;;;;;3.09;68.76;100182.56;5002664;28;19952;-62
2023/12/17 06:36:44;;;;;;;;;;;;;;;2.88;69.40;100185.44;5006769;28;19936;-62
2023/12/17 06:39:33;;;;;;;;;;;;;;;3.04;68.86;100193.09;5009267;28;19926;-64
2023/12/17 06:42:21;;;;;;;;;;;;;;;3.14;68.55;100195.34;5013724;28;19932;-62
2023/12/17 06:45:10;;;;;;;;;;;;;;;3.08;68.50;100191.63;5008964;28;19929;-62
2023/12/17 06:47:58;;;;;;;;;;;;;;;3.16;68.34;100195.97;5013076;28;19935;-62
2023/12/17 06:50:46;;;;;;;;;;;;;;;3.17;67.90;100202.16;5006007;28;19935;-62
2023/12/17 06:53:36;;;;;;;;;;;;;;;3.26;68.07;100195.56;5002543;28;19949;-62
2023/12/17 06:56:24;;;;;;;;;;;;;;;3.25;67.54;100204.63;5012040;28;21902;-63
2023/12/17 06:59:12;;;;;;;;;;;;;;;3.06;68.33;100199.06;5008499;28;20415;-62
2023/12/17 07:02:00;;;;;;;;;;;;;;;3.07;68.36;100187.28;4999972;28;19936;-64
2023/12/17 07:04:49;;;;;;;;;;;;;;;2.97;69.11;100188.72;5007859;28;19925;-62
2023/12/17 07:07:37;;;;;;;;;;;;;;;2.31;70.59;100201.00;5001278;28;19926;-63
2023/12/17 07:10:26;;;;;;;;;;;;;;;2.74;70.11;100197.19;5004744;28;19932;-64
2023/12/17 07:13:15;;;;;;;;;;;;;;;2.78;69.61;100203.81;5006512;28;19925;-62
2023/12/17 07:16:03;;;;;;;;;;;;;;;2.80;69.31;100207.94;5008357;28;19932;-63
2023/12/17 07:18:51;;;;;;;;;;;;;;;2.78;69.91;100206.50;5005160;28;20015;-63
2023/12/17 07:21:40;;;;;;;;;;;;;;;2.78;69.72;100201.13;4999229;28;20388;-63
2023/12/17 07:24:28;;;;;;;;;;;;;;;2.91;69.25;100195.75;5004191;28;19934;-63
2023/12/17 07:27:18;;;;;;;;;;;;;;;2.96;69.53;100185.22;5007648;28;19933;-62
2023/12/17 07:30:07;;;;;;;;;;;;;;;3.04;69.20;100203.84;5009828;28;20738;-63
2023/12/17 07:32:55;;;;;;;;;;;;;;;2.97;69.10;100208.34;5002060;28;19925;-63
2023/12/17 07:35:43;;;;;;;;;;;;;;;3.04;68.76;100203.00;5001982;28;19980;-63
2023/12/17 07:38:33;;;;;;;;;;;;;;;2.97;68.97;100202.16;5006481;28;20406;-63
2023/12/17 07:41:21;;;;;;;;;;;;;;;2.86;68.78;100200.91;4999745;28;19933;-62
2023/12/17 07:44:11;;;;;;;;;;;;;;;2.80;69.50;100210.63;5018789;28;20376;-63
2023/12/17 07:46:59;;;;;;;;;;;;;;;2.89;68.96;100201.34;5000100;28;19933;-63
2023/12/17 07:49:47;;;;;;;;;;;;;;;2.90;68.96;100186.06;5002603;28;21958;-62
2023/12/17 07:52:35;;;;;;;;;;;;;;;2.96;68.69;100179.03;5009358;28;19929;-62
2023/12/17 07:55:23;;;;;;;;;;;;;;;2.88;69.18;100177.38;5006022;28;19925;-63
2023/12/17 07:58:12;;;;;;;;;;;;;;;2.96;69.31;100179.03;5002004;28;20399;-62
2023/12/17 08:01:01;;;;;;;;;;;;;;;2.92;69.43;100186.66;5001428;28;20044;-62
2023/12/17 08:03:49;;;;;;;;;;;;;;;2.94;69.18;100187.31;4999251;28;19934;-62
2023/12/17 08:06:38;;;;;;;;;;;;;;;3.07;68.96;100192.66;5006339;28;20623;-64
2023/12/17 08:09:26;;;;;;;;;;;;;;;3.06;69.18;100191.00;5004805;28;19936;-62
2023/12/17 08:12:14;;;;;;;;;;;;;;;3.05;69.08;100194.75;5011719;28;19926;-63
2023/12/17 08:15:04;;;;;;;;;;;;;;;3.14;68.83;100198.03;5002475;28;20432;-62
2023/12/17 08:17:53;;;;;;;;;;;;;;;3.17;68.89;100199.50;5006811;28;20012;-62
2023/12/17 08:20:41;;;;;;;;;;;;;;;3.05;69.86;100205.47;5010517;28;19929;-63
2023/12/17 08:23:30;;;;;;;;;;;;;;;2.78;70.31;100206.50;5008109;28;19952;-64
2023/12/17 08:26:19;;;;;;;;;;;;;;;2.85;70.60;100199.25;5008945;28;19933;-63
2023/12/17 08:29:07;;;;;;;;;;;;;;;2.92;70.05;100201.94;5008544;28;20033;-63
2023/12/17 08:31:55;;;;;;;;;;;;;;;3.18;69.80;100206.50;5010184;28;19925;-63
2023/12/17 08:34:45;;;;;;;;;;;;;;;3.25;69.25;100202.81;5005719;28;19931;-62
2023/12/17 08:37:33;;;;;;;;;;;;;;;3.40;68.76;100207.94;5009054;28;20435;-62
2023/12/17 08:40:21;;;;;;;;;;;;;;;3.43;68.74;100223.66;5003184;28;19960;-64
2023/12/17 08:43:09;;;;;;;;;;;;;;;3.49;68.67;100217.44;5002770;28;19933;-63
2023/12/17 08:45:57;;;;;;;;;;;;;;;3.44;68.94;100229.84;5006607;28;19937;-62
2023/12/17 08:48:45;;;;;;;;;;;;;;;3.53;68.32;100220.56;5005572;28;19934;-61
2023/12/17 08:51:35;;;;;;;;;;;;;;;3.23;69.17;100214.78;5013607;28;19930;-63
2023/12/17 08:54:23;;;;;;;;;;;;;;;3.48;68.90;100210.41;5004086;28;19933;-62
2023/12/17 08:57:11;;;;;;;;;;;;;;;3.63;68.71;100216.41;5008797;28;19925;-62
2023/12/17 09:00:00;;;;;;;;;;;;;;;3.77;68.13;100213.66;5007883;28;20394;-61
2023/12/17 09:02:49;;;;;;;;;;;;;;;3.80;68.25;100207.88;5003987;28;20379;-62
2023/12/17 09:05:38;;;;;;;;;;;;;;;3.79;68.68;100208.94;5005250;28;20022;-62
2023/12/17 09:08:27;;;;;;;;;;;;;;;3.75;68.84;100210.38;5008073;28;20008;-63
2023/12/17 09:11:16;;;;;;;;;;;;;;;3.82;68.77;100216.56;5008015;28;19932;-62
2023/12/17 09:14:04;;;;;;;;;;;;;;;3.79;69.13;100214.31;5005233;28;19981;-62
2023/12/17 09:16:52;;;;;;;;;;;;;;;3.92;68.70;100217.75;5009460;28;19926;-63
2023/12/17 09:19:40;;;;;;;;;;;;;;;4.03;68.54;100213.59;5006650;28;19925;-62
2023/12/17 09:22:28;;;;;;;;;;;;;;;4.04;68.74;100225.16;5013854;28;19937;-62
2023/12/17 09:25:18;;;;;;;;;;;;;;;3.89;68.98;100220.06;5006389;28;20302;-62
2023/12/17 09:28:06;;;;;;;;;;;;;;;3.99;68.88;100220.44;5010934;28;19941;-63
2023/12/17 09:30:54;;;;;;;;;;;;;;;4.14;68.50;100221.00;5008728;28;20291;-62
2023/12/17 09:33:43;;;;;;;;;;;;;;;4.29;68.38;100219.91;5004276;28;19961;-62
2023/12/17 09:36:31;;;;;;;;;;;;;;;4.27;68.71;100213.94;5002160;28;20440;-62
2023/12/17 09:39:19;;;;;;;;;;;;;;;4.33;68.27;100219.28;5010044;28;20615;-61
2023/12/17 09:42:09;;;;;;;;;;;;;;;4.44;68.02;100220.47;5005550;28;19926;-62
2023/12/17 09:44:57;;;;;;;;;;;;;;;4.19;68.64;100212.28;5004028;28;19930;-62
2023/12/17 09:47:46;;;;;;;;;;;;;;;4.54;68.51;100214.63;5005664;28;19934;-62
2023/12/17 09:50:34;;;;;;;;;;;;;;;4.50;68.66;100213.41;5006990;28;20403;-62
2023/12/17 09:53:22;;;;;;;;;;;;;;;4.79;67.59;100209.28;5006255;28;20333;-62
2023/12/17 09:56:10;;;;;;;;;;;;;;;4.90;67.35;100208.56;5011817;28;20260;-64
2023/12/17 09:58:59;;;;;;;;;;;;;;;4.98;67.49;100201.06;5008979;28;20401;-62
2023/12/17 10:01:47;;;;;;;;;;;;;;;5.21;66.75;100192.38;5006181;28;19932;-63
2023/12/17 10:04:35;;;;;;;;;;;;;;;5.30;66.46;100189.41;4998830;28;19932;-63
2023/12/17 10:07:24;;;;;;;;;;;;;;;5.33;66.15;100180.91;5004776;28;20368;-62
2023/12/17 10:10:12;;;;;;;;;;;;;;;5.45;65.92;100162.94;5007890;28;20024;-62
2023/12/17 10:13:00;;;;;;;;;;;;;;;5.38;66.30;100156.78;5005487;28;19925;-64
2023/12/17 10:15:50;;;;;;;;;;;;;;;5.25;65.95;100153.16;5007398;28;20295;-63
2023/12/17 10:18:38;;;;;;;;;;;;;;;5.23;66.90;100149.06;5005467;28;19933;-62
2023/12/17 10:21:27;;;;;;;;;;;;;;;5.13;67.27;100146.88;5002192;28;19925;-62
2023/12/17 10:24:15;;;;;;;;;;;;;;;5.35;66.84;100149.16;5009801;28;20386;-63
2023/12/17 10:27:03;;;;;;;;;;;;;;;5.50;66.45;100138.84;5006463;28;19925;-62
2023/12/17 10:29:51;;;;;;;;;;;;;;;5.64;66.39;100142.19;5007525;28;19926;-64
2023/12/17 10:32:43;;;;;;;;;;;;;;;5.72;66.34;100141.91;5007225;28;19933;-62
2023/12/17 10:35:31;;;;;;;;;;;;;;;5.81;65.60;100148.66;5002942;28;19980;-62
2023/12/17 10:38:19;;;;;;;;;;;;;;;5.37;66.90;100144.34;5002389;28;19933;-62
2023/12/17 10:41:07;;;;;;;;;;;;;;;5.12;68.09;100131.75;5007150;28;20028;-64
2023/12/17 10:43:55;;;;;;;;;;;;;;;5.48;67.50;100140.91;5001617;28;20300;-62
2023/12/17 10:46:44;;;;;;;;;;;;;;;5.59;67.64;100136.66;5008157;28;19926;-63
2023/12/17 10:49:33;;;;;;;;;;;;;;;5.72;66.71;100136.53;5005787;28;20131;-62
2023/12/17 10:52:22;;;;;;;;;;;;;;;5.97;65.85;100140.00;5004153;28;19934;-63
2023/12/17 10:55:10;;;;;;;;;;;;;;;6.05;65.55;100141.53;5002883;28;19937;-62
2023/12/17 10:57:58;;;;;;;;;;;;;;;6.18;65.26;100133.28;5005148;28;20050;-61
2023/12/17 11:00:46;;;;;;;;;;;;;;;6.18;65.33;100138.69;5007396;28;20340;-62
2023/12/17 11:03:34;;;;;;;;;;;;;;;6.27;65.49;100139.19;5002423;28;20159;-65
2023/12/17 11:06:24;;;;;;;;;;;;;;;6.46;65.09;100130.00;5003836;28;19926;-63
2023/12/17 11:09:15;;;;;;;;;;;;;;;6.08;65.11;100122.22;5001257;28;19926;-64
2023/12/17 11:12:04;;;;;;;;;;;;;;;6.41;64.62;100112.84;5005723;28;19936;-64
2023/12/17 11:14:52;;;;;;;;;;;;;;;6.49;64.15;100107.91;5004573;28;19930;-63
2023/12/17 11:17:41;;;;;;;;;;;;;;;6.52;64.41;100107.47;5007504;28;19934;-63
2023/12/17 11:20:34;;;;;;;;;;;;;;;6.59;64.38;100104.66;4999083;28;19929;-63
2023/12/17 11:23:24;;;;;;;;;;;;;;;6.74;63.67;100104.22;5004148;28;20048;-63
2023/12/17 11:26:14;;;;;;;;;;;;;;;6.86;63.24;100096.94;5008530;28;19976;-62
2023/12/17 11:29:02;;;;;;;;;;;;;;;6.85;62.42;100097.19;5009966;28;20028;-64
2023/12/17 11:31:50;;;;;;;;;;;;;;;6.92;63.21;100082.50;5005793;28;19930;-64
2023/12/17 11:34:38;;;;;;;;;;;;;;;6.90;63.47;100089.19;5008407;28;19965;-63
2023/12/17 11:37:29;;;;;;;;;;;;;;;6.91;62.65;100082.72;5005291;28;19929;-63
2023/12/17 11:40:19;;;;;;;;;;;;;;;6.80;63.45;100084.38;5004853;28;19952;-63
2023/12/17 11:43:07;;;;;;;;;;;;;;;6.91;63.19;100080.03;5003116;28;19926;-64
2023/12/17 11:45:55;;;;;;;;;;;;;;;7.04;63.12;100080.63;5010862;28;19972;-63
2023/12/17 11:48:43;;;;;;;;;;;;;;;7.08;62.79;100079.13;5010566;28;19940;-62
2023/12/17 11:51:33;;;;;;;;;;;;;;;7.07;63.03;100066.63;5008862;28;19969;-63
2023/12/17 11:54:22;;;;;;;;;;;;;;;6.99;62.55;100071.59;4995780;28;19929;-63
2023/12/17 11:57:21;;;;;;;;;;;;;;;6.93;62.90;100062.53;5002840;28;19933;-63
2023/12/17 12:00:11;;;;;;;;;;;;;;;7.08;62.46;100064.75;4999071;28;20020;-63
2023/12/17 12:02:59;;;;;;;;;;;;;;;7.14;62.01;100066.53;5007834;28;20084;-64
2023/12/17 12:05:47;;;;;;;;;;;;;;;7.21;61.41;100059.13;5008970;28;19999;-61
2023/12/17 12:08:35;;;;;;;;;;;;;;;7.27;61.14;100063.56;5011467;28;19925;-61
2023/12/17 12:11:30;;;;;;;;;;;;;;;6.98;61.90;100067.25;5010879;28;20303;-64
2023/12/17 12:14:19;;;;;;;;;;;;;;;7.19;61.27;100057.69;5002362;28;19955;-63
2023/12/17 12:17:07;;;;;;;;;;;;;;;7.35;61.51;100057.81;5006752;28;19973;-63
2023/12/17 12:19:56;;;;;;;;;;;;;;;7.31;61.75;100050.41;5008647;28;20368;-63
2023/12/17 12:22:45;;;;;;;;;;;;;;;7.54;61.77;100046.84;5009846;28;20031;-63
2023/12/17 12:25:36;;;;;;;;;;;;;;;7.52;61.64;100048.97;5007531;28;19925;-63
2023/12/17 12:28:25;;;;;;;;;;;;;;;7.51;61.21;100045.44;5000550;28;19980;-62
2023/12/17 12:31:17;;;;;;;;;;;;;;;7.64;61.15;100030.00;5009801;28;19926;-61
2023/12/17 12:34:06;;;;;;;;;;;;;;;7.53;60.06;100037.91;5002597;28;20127;-64
2023/12/17 12:36:55;;;;;;;;;;;;;;;7.65;60.40;100031.63;4998592;28;20016;-63
2023/12/17 12:39:45;;;;;;;;;;;;;;;7.77;60.71;100033.22;4999071;28;19936;-61
2023/12/17 12:42:46;;;;;;;;;;;;;;;7.67;60.49;100024.94;5006204;28;19930;-61
2023/12/17 12:45:35;;;;;;;;;;;;;;;7.73;60.68;100028.56;5004457;28;19952;-62
2023/12/17 12:48:25;;;;;;;;;;;;;;;7.83;60.37;100023.34;5000889;28;19926;-62
2023/12/17 12:51:13;;;;;;;;;;;;;;;7.72;61.06;100025.00;5001966;28;19925;-61
2023/12/17 12:54:03;;;;;;;;;;;;;;;7.75;60.07;100027.25;5006201;28;19926;-62
2023/12/17 12:56:51;;;;;;;;;;;;;;;7.78;60.16;100029.47;5003173;28;19936;-62
2023/12/17 12:59:39;;;;;;;;;;;;;;;7.86;59.79;100020.97;5008528;28;20410;-62
2023/12/17 13:02:31;;;;;;;;;;;;;;;7.72;59.63;100011.47;5004240;28;20419;-63
2023/12/17 13:05:22;;;;;;;;;;;;;;;7.75;59.90;100004.78;5005459;28;20020;-62
2023/12/17 13:08:10;;;;;;;;;;;;;;;7.69;59.62;100006.56;5003033;28;19940;-61
2023/12/17 13:10:58;;;;;;;;;;;;;;;7.76;60.92;100007.22;4999357;28;20016;-61
2023/12/17 13:13:46;;;;;;;;;;;;;;;7.91;59.55;99995.06;5007125;28;19955;-64
2023/12/17 13:16:35;;;;;;;;;;;;;;;7.94;60.48;99986.47;5001966;28;19925;-63
2023/12/17 13:19:24;;;;;;;;;;;;;;;8.06;59.50;99981.81;5002063;28;19929;-62
2023/12/17 13:22:13;;;;;;;;;;;;;;;8.16;58.85;99973.88;5006145;28;20299;-62
2023/12/17 13:25:01;;;;;;;;;;;;;;;8.13;58.76;99977.03;5007704;28;19968;-62
2023/12/17 13:27:51;;;;;;;;;;;;;;;8.12;58.93;99972.69;5007220;28;19936;-61
2023/12/17 13:30:39;;;;;;;;;;;;;;;8.01;58.75;99968.19;5007930;28;19933;-67
2023/12/17 13:33:27;;;;;;;;;;;;;;;8.12;58.99;99954.56;4995563;28;19926;-61
2023/12/17 13:36:15;;;;;;;;;;;;;;;8.22;58.09;99955.81;4998737;28;20075;-62
2023/12/17 13:39:05;;;;;;;;;;;;;;;8.17;58.38;99959.25;5001963;28;22481;-62
2023/12/17 13:41:53;;;;;;;;;;;;;;;8.23;58.44;99960.16;5003107;28;19929;-63
2023/12/17 13:44:46;;;;;;;;;;;;;;;8.21;58.23;99959.59;5006230;28;19926;-61
2023/12/17 13:47:34;;;;;;;;;;;;;;;8.22;57.85;99964.75;5006002;28;20020;-63
2023/12/17 13:50:22;;;;;;;;;;;;;;;8.21;58.59;99965.81;5002078;28;19979;-63
2023/12/17 13:53:10;;;;;;;;;;;;;;;8.09;58.97;99952.34;5002713;28;19933;-64
2023/12/17 13:56:00;;;;;;;;;;;;;;;8.11;58.58;99950.22;5005134;28;19932;-64
2023/12/17 13:58:48;;;;;;;;;;;;;;;8.00;59.04;99955.72;5004992;28;20370;-63
2023/12/17 14:01:39;;;;;;;;;;;;;;;7.94;59.10;99956.69;5001994;28;19925;-62
2023/12/17 14:04:27;;;;;;;;;;;;;;;8.06;58.77;99950.13;5005581;28;20056;-63
2023/12/17 14:07:20;;;;;;;;;;;;;;;7.97;59.54;99948.06;5001124;28;20704;-64
2023/12/17 14:10:10;;;;;;;;;;;;;;;7.95;59.30;99942.91;5003980;28;20390;-63
2023/12/17 14:13:00;;;;;;;;;;;;;;;7.94;59.57;99940.47;5008409;28;20661;-64
2023/12/17 14:15:49;;;;;;;;;;;;;;;8.00;59.53;99942.19;5003675;28;21183;-63
2023/12/17 14:18:37;;;;;;;;;;;;;;;7.96;60.28;99941.03;5007880;28;20339;-63
2023/12/17 14:21:26;;;;;;;;;;;;;;;7.87;60.45;99943.28;5001847;28;19969;-64
2023/12/17 14:24:14;;;;;;;;;;;;;;;7.88;60.46;99944.94;4999942;28;19926;-63
2023/12/17 14:27:02;;;;;;;;;;;;;;;7.86;60.65;99941.66;5003600;28;19932;-63
2023/12/17 14:29:52;;;;;;;;;;;;;;;7.86;61.12;99942.47;4999301;28;19941;-65
2023/12/17 14:32:40;;;;;;;;;;;;;;;7.97;59.86;99939.94;5001732;28;19940;-64
2023/12/17 14:35:28;;;;;;;;;;;;;;;7.96;60.59;99941.84;4998704;28;19929;-64
2023/12/17 14:38:17;;;;;;;;;;;;;;;8.06;59.98;99943.91;5000151;28;19926;-64